Time;durP1;ratioP1;P1;durP2;ratioP2;P2;SDS_P1;SDS_P2;PMS_P1;PMS_P2;Temp;Humidity;BMP_temperature;BMP_pressure;BME280_temperature;BME280_humidity;BME280_pressure;Samples;Min_cycle;Max_cycle;Signal;HPM_P1;HPM_P2
2023/08/24 00:01:31;;;;;;;4.50;4.10;;;;;;;16.36;81.52;101249.38;4994845;28;20214;-72
2023/08/24 00:03:57;;;;;;;7.27;4.70;;;;;;;16.37;82.19;101258.94;4992634;28;20215;-71
2023/08/24 00:06:24;;;;;;;4.27;3.67;;;;;;;16.32;81.47;101253.88;4995770;28;20738;-72
2023/08/24 00:08:50;;;;;;;5.57;4.97;;;;;;;16.31;81.47;101254.97;4998640;28;20233;-72
2023/08/24 00:11:18;;;;;;;5.13;4.47;;;;;;;16.32;82.18;101253.09;4995772;28;20214;-72
2023/08/24 00:13:48;;;;;;;4.87;4.40;;;;;;;16.29;81.61;101251.13;4996728;28;20499;-71
2023/08/24 00:16:15;;;;;;;5.40;4.50;;;;;;;16.30;82.00;101253.44;4998207;28;20207;-71
2023/08/24 00:18:42;;;;;;;4.70;4.30;;;;;;;16.30;82.14;101253.44;4995993;28;20339;-72
2023/08/24 00:21:08;;;;;;;6.27;4.40;;;;;;;16.28;82.18;101254.91;4996213;28;20213;-71
2023/08/24 00:23:35;;;;;;;4.70;4.30;;;;;;;16.25;81.95;101248.38;4993946;28;20430;-71
2023/08/24 00:26:01;;;;;;;4.80;4.27;;;;;;;16.22;81.44;101254.41;4994488;28;20539;-72
2023/08/24 00:28:29;;;;;;;4.67;4.27;;;;;;;16.19;81.68;101260.44;4993561;28;21551;-72
2023/08/24 00:30:56;;;;;;;4.90;4.23;;;;;;;16.21;82.19;101258.22;4978297;28;20220;-72
2023/08/24 00:33:22;;;;;;;5.53;4.40;;;;;;;16.19;82.10;101265.00;4997356;28;20223;-72
2023/08/24 00:35:48;;;;;;;4.93;4.30;;;;;;;16.15;81.50;101267.56;4998019;28;20735;-71
2023/08/24 00:38:15;;;;;;;4.53;4.13;;;;;;;16.16;82.04;101263.00;4996568;28;20230;-72
2023/08/24 00:40:42;;;;;;;5.10;4.67;;;;;;;16.17;82.16;101261.88;4966953;28;20261;-72
2023/08/24 00:43:08;;;;;;;4.83;4.43;;;;;;;16.18;82.55;101263.44;4968061;28;20209;-72
2023/08/24 00:45:36;;;;;;;4.87;4.40;;;;;;;16.19;82.53;101265.00;4981618;28;20219;-72
2023/08/24 00:48:04;;;;;;;5.00;4.50;;;;;;;16.21;82.47;101265.41;4991621;28;20231;-72
2023/08/24 00:50:30;;;;;;;5.03;4.47;;;;;;;16.19;82.13;101268.41;4979268;28;20209;-71
2023/08/24 00:52:57;;;;;;;4.90;4.50;;;;;;;16.20;81.80;101263.88;4967193;28;20226;-72
2023/08/24 00:55:23;;;;;;;5.07;4.67;;;;;;;16.22;81.95;101272.28;4994097;28;20218;-72
2023/08/24 00:57:51;;;;;;;7.03;4.90;;;;;;;16.25;82.07;101268.94;4976617;28;20252;-71
2023/08/24 01:00:17;;;;;;;5.10;4.70;;;;;;;16.25;81.87;101260.94;4994624;28;20230;-71
2023/08/24 01:02:45;;;;;;;5.50;4.93;;;;;;;16.25;81.31;101267.03;4994808;28;20580;-71
2023/08/24 01:05:12;;;;;;;5.13;4.67;;;;;;;16.25;81.45;101261.69;4997984;28;20213;-72
2023/08/24 01:07:40;;;;;;;5.70;4.40;;;;;;;16.28;81.20;101265.56;4994656;28;20417;-72
2023/08/24 01:10:09;;;;;;;6.63;4.83;;;;;;;16.27;81.58;101267.47;4990963;28;20191;-71
2023/08/24 01:12:49;;;;;;;6.33;4.37;;;;;;;16.29;82.03;101264.44;4995744;28;20696;-72
2023/08/24 01:15:21;;;;;;;7.50;4.80;;;;;;;16.30;81.96;101266.78;4995806;28;20433;-71
2023/08/24 01:17:50;;;;;;;4.57;4.17;;;;;;;16.32;82.22;101261.88;4977112;28;20392;-71
2023/08/24 01:20:19;;;;;;;5.83;4.70;;;;;;;16.33;81.94;101268.75;4969035;28;20288;-71
2023/08/24 01:22:54;;;;;;;5.07;4.67;;;;;;;16.32;82.30;101269.09;4970755;28;20831;-72
2023/08/24 01:25:29;;;;;;;5.20;4.70;;;;;;;16.32;81.93;101263.75;4990713;28;20217;-72
2023/08/24 01:27:58;;;;;;;6.00;4.63;;;;;;;16.29;81.42;101267.88;4993074;28;20238;-71
2023/08/24 01:30:25;;;;;;;6.30;4.57;;;;;;;16.26;81.50;101265.16;4977083;28;20206;-72
2023/08/24 01:32:52;;;;;;;9.53;5.10;;;;;;;16.24;82.34;101268.16;4996886;28;20193;-71
2023/08/24 01:35:19;;;;;;;4.97;4.47;;;;;;;16.23;82.53;101274.63;4979294;28;20217;-71
2023/08/24 01:37:46;;;;;;;5.10;4.60;;;;;;;16.21;82.30;101268.88;4963687;28;20205;-71
2023/08/24 01:40:17;;;;;;;5.10;4.60;;;;;;;16.17;82.11;101267.22;4994826;28;20202;-71
2023/08/24 01:42:52;;;;;;;5.10;4.60;;;;;;;16.16;82.49;101265.69;4976838;28;20621;-71
2023/08/24 01:45:20;;;;;;;4.70;4.30;;;;;;;16.12;82.17;101259.50;4974962;28;20433;-71
2023/08/24 01:47:49;;;;;;;5.83;5.20;;;;;;;16.09;82.28;101262.84;4964475;28;20232;-72
2023/08/24 01:50:15;;;;;;;5.30;4.80;;;;;;;16.04;81.95;101257.78;4977863;28;20215;-71
2023/08/24 01:52:43;;;;;;;4.87;4.47;;;;;;;16.03;82.84;101254.34;4993861;28;20357;-72
2023/08/24 01:55:10;;;;;;;5.10;4.60;;;;;;;16.01;83.24;101256.59;4992727;28;20207;-71
2023/08/24 01:57:36;;;;;;;4.97;4.47;;;;;;;15.97;82.69;101260.28;4965085;28;20210;-71
2023/08/24 02:00:06;;;;;;;6.10;5.17;;;;;;;15.93;82.62;101260.19;4964955;28;20311;-72
2023/08/24 02:02:42;;;;;;;6.57;5.47;;;;;;;15.93;83.47;101254.88;4996010;28;21271;-71
2023/08/24 02:05:09;;;;;;;6.60;5.20;;;;;;;15.87;82.90;101258.91;4981433;28;20235;-71
2023/08/24 02:07:35;;;;;;;6.10;5.20;;;;;;;15.85;83.07;101260.38;4994128;28;20221;-71
2023/08/24 02:10:04;;;;;;;5.80;5.10;;;;;;;15.81;82.90;101252.28;4976069;28;20212;-71
2023/08/24 02:12:30;;;;;;;5.50;5.00;;;;;;;15.75;82.73;101256.34;4996212;28;21271;-72
2023/08/24 02:14:56;;;;;;;5.60;5.10;;;;;;;15.75;83.57;101250.22;4976299;28;20224;-72
2023/08/24 02:17:23;;;;;;;6.37;5.27;;;;;;;15.72;83.40;101259.66;4977045;28;20211;-72
2023/08/24 02:19:51;;;;;;;5.80;5.30;;;;;;;15.69;83.88;101263.00;4975729;28;20232;-72
2023/08/24 02:22:17;;;;;;;5.67;5.13;;;;;;;15.68;83.80;101260.72;4976288;28;20214;-72
2023/08/24 02:24:44;;;;;;;5.90;5.40;;;;;;;15.65;83.95;101256.06;4973146;28;21187;-72
2023/08/24 02:27:10;;;;;;;6.93;5.40;;;;;;;15.66;84.32;101257.59;4976452;28;20597;-72
2023/08/24 02:29:38;;;;;;;5.50;5.07;;;;;;;15.63;84.47;101259.06;4997761;28;20227;-72
2023/08/24 02:32:04;;;;;;;5.30;4.90;;;;;;;15.63;84.37;101260.97;4995518;28;20211;-71
2023/08/24 02:34:31;;;;;;;5.67;5.17;;;;;;;15.58;84.15;101256.66;4993981;28;20201;-72
2023/08/24 02:36:59;;;;;;;5.80;5.20;;;;;;;15.60;84.23;101258.97;4993442;28;20224;-72
2023/08/24 02:39:26;;;;;;;5.50;5.00;;;;;;;15.58;84.19;101251.31;4994622;28;20232;-71
2023/08/24 02:41:52;;;;;;;5.60;5.10;;;;;;;15.58;84.94;101258.56;4995731;28;20510;-71
2023/08/24 02:44:19;;;;;;;5.77;5.27;;;;;;;15.53;83.78;101250.81;4974385;28;20203;-72
2023/08/24 02:46:45;;;;;;;5.87;5.37;;;;;;;15.52;84.40;101259.91;4975375;28;20210;-71
2023/08/24 02:49:12;;;;;;;6.20;5.60;;;;;;;15.50;85.03;101257.59;4992520;28;20302;-71
2023/08/24 02:51:38;;;;;;;6.10;5.50;;;;;;;15.47;84.36;101260.94;4968159;28;20211;-72
2023/08/24 02:54:06;;;;;;;6.10;5.50;;;;;;;15.46;84.91;101267.38;4993518;28;21234;-72
2023/08/24 02:56:33;;;;;;;5.73;5.20;;;;;;;15.42;85.00;101258.50;4975920;28;20218;-71
2023/08/24 02:59:00;;;;;;;5.40;4.97;;;;;;;15.41;84.44;101261.50;4974913;28;20228;-71
2023/08/24 03:01:27;;;;;;;7.47;5.17;;;;;;;15.39;84.76;101267.19;4967162;28;20219;-72
2023/08/24 03:03:53;;;;;;;6.40;5.13;;;;;;;15.36;84.78;101257.22;4997005;28;21005;-72
2023/08/24 03:06:20;;;;;;;5.63;5.13;;;;;;;15.33;84.81;101251.81;4976698;28;20236;-71
2023/08/24 03:08:46;;;;;;;10.73;5.57;;;;;;;15.29;84.33;101256.22;4979103;28;20224;-70
2023/08/24 03:11:14;;;;;;;5.80;5.20;;;;;;;15.25;84.24;101250.81;4991799;28;20200;-72
2023/08/24 03:13:40;;;;;;;5.67;5.17;;;;;;;15.21;84.50;101247.28;4995642;28;20426;-71
2023/08/24 03:16:09;;;;;;;6.13;5.53;;;;;;;15.18;84.46;101241.88;4978397;28;21377;-72
2023/08/24 03:18:36;;;;;;;5.67;5.17;;;;;;;15.14;84.73;101254.28;4975173;28;20823;-72
2023/08/24 03:21:04;;;;;;;6.20;5.70;;;;;;;15.14;85.56;101251.63;4977327;28;20294;-72
2023/08/24 03:23:33;;;;;;;5.93;5.43;;;;;;;15.13;85.63;101255.41;4967563;28;20473;-71
2023/08/24 03:25:59;;;;;;;6.40;5.80;;;;;;;15.12;85.96;101245.88;4980991;28;20216;-71
2023/08/24 03:28:27;;;;;;;6.53;5.93;;;;;;;15.10;86.02;101246.22;4994265;28;21894;-72
2023/08/24 03:30:55;;;;;;;6.03;5.47;;;;;;;15.10;86.06;101254.22;4977108;28;20207;-72
2023/08/24 03:33:22;;;;;;;6.13;5.53;;;;;;;15.07;86.04;101246.13;4970109;28;20199;-71
2023/08/24 03:35:49;;;;;;;6.07;5.43;;;;;;;15.05;85.52;101254.44;4998295;28;20207;-71
2023/08/24 03:38:15;;;;;;;6.50;5.90;;;;;;;15.06;86.21;101244.59;4997344;28;20227;-71
2023/08/24 03:40:42;;;;;;;10.30;5.90;;;;;;;15.07;86.41;101260.19;4995449;28;20214;-72
2023/08/24 03:43:08;;;;;;;6.47;5.83;;;;;;;15.06;86.02;101250.66;4979607;28;22408;-71
2023/08/24 03:45:36;;;;;;;6.63;6.03;;;;;;;15.04;86.28;101252.91;4978445;28;20650;-71
2023/08/24 03:48:04;;;;;;;6.13;5.53;;;;;;;15.04;86.50;101250.25;4977597;28;20235;-71
2023/08/24 03:50:31;;;;;;;6.97;6.37;;;;;;;15.04;86.22;101252.13;4978840;28;20980;-72
2023/08/24 03:52:57;;;;;;;6.97;6.37;;;;;;;15.03;86.32;101253.22;4995335;28;20719;-71
2023/08/24 03:55:24;;;;;;;6.10;5.50;;;;;;;15.01;85.98;101253.56;4977948;28;20214;-71
2023/08/24 03:57:50;;;;;;;6.50;5.90;;;;;;;14.98;86.02;101254.25;4968361;28;20288;-71
2023/08/24 04:00:17;;;;;;;6.13;5.53;;;;;;;14.96;86.29;101250.38;4978054;28;20203;-71
2023/08/24 04:02:46;;;;;;;6.70;5.53;;;;;;;14.95;86.01;101254.16;4976188;28;20293;-71
2023/08/24 04:05:24;;;;;;;6.67;6.07;;;;;;;14.93;86.34;101253.72;4975517;28;20676;-71
2023/08/24 04:07:50;;;;;;;6.47;5.80;;;;;;;14.94;86.61;101245.41;4996150;28;20744;-72
2023/08/24 04:10:17;;;;;;;7.57;5.80;;;;;;;14.95;86.89;101246.94;4998069;28;20214;-72
2023/08/24 04:12:44;;;;;;;6.27;5.70;;;;;;;14.90;86.54;101241.88;4974914;28;20488;-72
2023/08/24 04:15:11;;;;;;;7.20;6.57;;;;;;;14.91;86.88;101240.75;4974247;28;20222;-72
2023/08/24 04:17:37;;;;;;;6.80;6.20;;;;;;;14.89;86.64;101247.50;4998056;28;20690;-72
2023/08/24 04:20:07;;;;;;;7.30;6.60;;;;;;;14.91;86.67;101240.75;4997132;28;20230;-71
2023/08/24 04:22:34;;;;;;;6.67;6.00;;;;;;;14.94;87.01;101244.63;4996245;28;20219;-72
2023/08/24 04:25:00;;;;;;;7.53;6.80;;;;;;;14.95;87.08;101246.94;4991640;28;20386;-71
2023/08/24 04:27:27;;;;;;;7.70;6.90;;;;;;;14.97;86.94;101247.41;4998214;28;20388;-71
2023/08/24 04:29:53;;;;;;;6.57;5.83;;;;;;;14.98;86.69;101251.59;4996689;28;20238;-72
2023/08/24 04:32:19;;;;;;;6.63;6.03;;;;;;;15.00;86.43;101257.34;4995772;28;20215;-70
2023/08/24 04:34:46;;;;;;;6.50;5.93;;;;;;;15.02;86.53;101254.34;4994167;28;20208;-71
2023/08/24 04:37:13;;;;;;;8.57;5.93;;;;;;;15.05;86.45;101253.69;4996463;28;20214;-71
2023/08/24 04:39:40;;;;;;;6.77;6.23;;;;;;;15.10;87.16;101251.53;4996861;28;20231;-72
2023/08/24 04:42:07;;;;;;;7.03;6.40;;;;;;;15.13;86.66;101252.75;4997683;28;20204;-70
2023/08/24 04:44:34;;;;;;;6.90;6.30;;;;;;;15.17;86.27;101254.38;4997292;28;20215;-72
2023/08/24 04:47:00;;;;;;;10.37;6.20;;;;;;;15.23;86.42;101252.28;4996204;28;20212;-72
2023/08/24 04:49:26;;;;;;;8.20;6.13;;;;;;;15.31;86.59;101254.03;4995896;28;20327;-71
2023/08/24 04:51:52;;;;;;;7.23;6.60;;;;;;;15.33;86.23;101249.94;4995052;28;20204;-71
2023/08/24 04:54:21;;;;;;;8.60;6.50;;;;;;;15.40;85.53;101249.31;4995643;28;20207;-71
2023/08/24 04:56:47;;;;;;;9.10;6.00;;;;;;;15.44;85.72;101256.31;4991989;28;20234;-71
2023/08/24 04:59:14;;;;;;;7.60;6.27;;;;;;;15.50;85.95;101246.94;4993947;28;20227;-72
2023/08/24 05:01:40;;;;;;;7.97;5.97;;;;;;;15.57;85.93;101251.69;4996764;28;20212;-72
2023/08/24 05:04:06;;;;;;;6.40;5.80;;;;;;;15.62;85.87;101252.19;4993554;28;20673;-71
2023/08/24 05:06:33;;;;;;;8.17;6.17;;;;;;;15.68;85.83;101258.81;4995873;28;21143;-72
2023/08/24 05:08:59;;;;;;;7.57;6.17;;;;;;;15.73;85.63;101253.22;4995047;28;20232;-71
2023/08/24 05:11:29;;;;;;;9.70;6.90;;;;;;;15.81;85.81;101256.84;4993732;28;20213;-71
2023/08/24 05:13:55;;;;;;;8.37;6.33;;;;;;;15.86;85.91;101256.56;4993479;28;20207;-72
2023/08/24 05:16:22;;;;;;;6.87;6.03;;;;;;;15.92;86.03;101257.88;4996527;28;20215;-71
2023/08/24 05:18:48;;;;;;;6.50;5.63;;;;;;;15.96;85.50;101264.84;4995617;28;20723;-72
2023/08/24 05:21:15;;;;;;;7.00;6.00;;;;;;;16.01;85.35;101269.13;4994438;28;20218;-71
2023/08/24 05:23:41;;;;;;;7.40;6.60;;;;;;;16.08;85.67;101266.63;4993758;28;20223;-72
2023/08/24 05:26:08;;;;;;;7.17;6.47;;;;;;;16.11;85.31;101263.28;4966460;28;20672;-71
2023/08/24 05:28:35;;;;;;;7.07;6.43;;;;;;;16.16;85.17;101247.03;4994526;28;20238;-72
2023/08/24 05:31:02;;;;;;;6.83;6.13;;;;;;;16.22;85.06;101248.31;4996158;28;20214;-71
2023/08/24 05:33:30;;;;;;;6.60;6.00;;;;;;;16.29;85.04;101249.25;4995506;28;20203;-71
2023/08/24 05:35:57;;;;;;;13.03;6.87;;;;;;;16.37;84.87;101250.97;4980164;28;20693;-72
2023/08/24 05:38:23;;;;;;;11.20;7.10;;;;;;;16.45;84.73;101249.25;4996654;28;20223;-71
2023/08/24 05:40:50;;;;;;;9.07;6.53;;;;;;;16.54;84.59;101249.81;4994115;28;20214;-71
2023/08/24 05:43:17;;;;;;;7.70;7.00;;;;;;;16.64;84.39;101250.03;4994106;28;20216;-70
2023/08/24 05:45:46;;;;;;;7.53;6.83;;;;;;;16.75;84.61;101248.38;4995327;28;20218;-71
2023/08/24 05:48:13;;;;;;;7.70;6.53;;;;;;;16.85;84.20;101258.47;4994798;28;20819;-71
2023/08/24 05:50:44;;;;;;;10.13;6.53;;;;;;;16.95;83.84;101249.13;4994938;28;20217;-70
2023/08/24 05:53:10;;;;;;;10.70;6.57;;;;;;;17.05;83.85;101249.34;4993035;28;20212;-72
2023/08/24 05:55:36;;;;;;;7.43;6.63;;;;;;;17.15;83.44;101248.78;4995523;28;20210;-72
2023/08/24 05:58:03;;;;;;;9.87;6.40;;;;;;;17.28;83.05;101242.16;4994334;28;20825;-72
2023/08/24 06:00:29;;;;;;;7.30;6.37;;;;;;;17.38;82.74;101238.94;4994736;28;20216;-72
2023/08/24 06:02:57;;;;;;;6.67;6.07;;;;;;;17.51;82.17;101239.53;4978471;28;20218;-71
2023/08/24 06:05:23;;;;;;;8.07;6.60;;;;;;;17.60;81.70;101243.50;4993805;28;20221;-71
2023/08/24 06:07:50;;;;;;;11.67;6.30;;;;;;;17.71;80.93;101246.38;4994942;28;20207;-71
2023/08/24 06:10:16;;;;;;;7.03;6.33;;;;;;;17.82;80.92;101241.97;4995151;28;21540;-71
2023/08/24 06:12:43;;;;;;;7.43;5.80;;;;;;;17.92;80.53;101238.69;4996120;28;20210;-71
2023/08/24 06:15:12;;;;;;;8.03;5.70;;;;;;;18.03;80.13;101237.75;4997166;28;20215;-72
2023/08/24 06:17:39;;;;;;;6.70;5.97;;;;;;;18.14;79.89;101245.91;4994445;28;21862;-72
2023/08/24 06:20:10;;;;;;;8.90;5.67;;;;;;;18.24;79.33;101235.38;4995846;28;20218;-71
2023/08/24 06:22:36;;;;;;;10.00;5.90;;;;;;;18.35;78.98;101238.22;4995043;28;20206;-71
2023/08/24 06:25:04;;;;;;;8.00;5.87;;;;;;;18.47;78.20;101235.34;4994177;28;20222;-71
2023/08/24 06:27:31;;;;;;;9.47;4.60;;;;;;;18.59;77.83;101251.16;4993728;28;21153;-71
2023/08/24 06:29:57;;;;;;;6.87;4.87;;;;;;;18.69;77.36;101245.19;4997000;28;20833;-71
2023/08/24 06:32:24;;;;;;;6.40;5.00;;;;;;;18.79;77.00;101247.97;4993937;28;20211;-72
2023/08/24 06:34:50;;;;;;;5.90;4.70;;;;;;;18.91;76.64;101250.44;4996092;28;20203;-72
2023/08/24 06:37:18;;;;;;;7.30;4.63;;;;;;;19.02;76.47;101239.81;4996544;28;20210;-71
2023/08/24 06:39:44;;;;;;;8.53;4.60;;;;;;;19.12;75.75;101239.97;4997115;28;20222;-72
2023/08/24 06:42:10;;;;;;;4.83;4.03;;;;;;;19.24;74.99;101247.00;5000378;28;20207;-72
2023/08/24 06:44:37;;;;;;;10.47;4.33;;;;;;;19.33;74.63;101250.91;4999325;28;20313;-72
2023/08/24 06:47:03;;;;;;;5.47;4.30;;;;;;;19.45;73.89;101249.91;4999645;28;20215;-72
2023/08/24 06:49:30;;;;;;;5.77;4.30;;;;;;;19.56;73.91;101250.75;4999220;28;20234;-72
2023/08/24 06:51:56;;;;;;;6.17;4.30;;;;;;;19.65;73.35;101237.81;5001042;28;21137;-71
2023/08/24 06:54:24;;;;;;;7.13;4.07;;;;;;;19.74;73.54;101244.41;5000210;28;20226;-72
2023/08/24 06:56:50;;;;;;;4.73;4.17;;;;;;;19.85;73.00;101244.47;4998067;28;20833;-71
2023/08/24 06:59:16;;;;;;;4.40;3.83;;;;;;;19.95;71.57;101249.94;4993578;28;20242;-72
2023/08/24 07:01:43;;;;;;;4.17;3.77;;;;;;;20.07;71.78;101244.31;4976641;28;20318;-72
2023/08/24 07:04:09;;;;;;;7.20;4.10;;;;;;;20.16;70.79;101246.66;4997279;28;20215;-71
2023/08/24 07:06:35;;;;;;;4.93;3.70;;;;;;;20.26;70.18;101244.06;4997865;28;20215;-72
2023/08/24 07:09:06;;;;;;;6.53;3.40;;;;;;;20.34;70.03;101252.91;5001344;28;20516;-72
2023/08/24 07:11:34;;;;;;;3.67;3.30;;;;;;;20.45;70.33;101253.75;4970612;28;20594;-71
2023/08/24 07:14:00;;;;;;;6.83;4.03;;;;;;;20.56;70.13;101249.19;4999230;28;20442;-72
2023/08/24 07:16:27;;;;;;;4.97;3.50;;;;;;;20.67;70.36;101244.66;4996674;28;22524;-71
2023/08/24 07:18:53;;;;;;;5.73;3.80;;;;;;;20.77;69.93;101249.28;4996709;28;20355;-72
2023/08/24 07:21:19;;;;;;;8.33;4.33;;;;;;;20.88;69.45;101258.16;5001259;28;20581;-72
2023/08/24 07:23:46;;;;;;;4.37;3.73;;;;;;;20.98;68.86;101257.44;4996373;28;20215;-72
2023/08/24 07:26:13;;;;;;;5.07;3.67;;;;;;;21.10;68.79;101255.19;4994514;28;20286;-72
2023/08/24 07:28:40;;;;;;;5.33;3.60;;;;;;;21.20;68.17;101253.66;4996574;28;20227;-73
2023/08/24 07:31:11;;;;;;;4.67;3.77;;;;;;;21.33;67.44;101257.56;4998029;28;20211;-71
2023/08/24 07:33:38;;;;;;;5.83;3.80;;;;;;;21.40;67.10;101263.72;4999034;28;21176;-71
2023/08/24 07:36:05;;;;;;;7.13;3.90;;;;;;;21.51;66.75;101264.50;4997374;28;20221;-72
2023/08/24 07:38:32;;;;;;;4.37;3.90;;;;;;;21.63;65.45;101260.66;4996583;28;20238;-71
2023/08/24 07:40:58;;;;;;;7.20;3.40;;;;;;;21.72;65.90;101261.84;4998493;28;20207;-72
2023/08/24 07:43:25;;;;;;;7.63;3.60;;;;;;;21.81;66.51;101275.69;4996305;28;20660;-72
2023/08/24 07:45:53;;;;;;;5.47;4.10;;;;;;;21.92;65.19;101268.38;4996396;28;20237;-72
2023/08/24 07:48:19;;;;;;;4.13;3.37;;;;;;;22.01;64.86;101260.69;4998716;28;20227;-71
2023/08/24 07:50:45;;;;;;;4.20;3.80;;;;;;;22.12;64.71;101256.06;4997003;28;20712;-71
2023/08/24 07:53:12;;;;;;;3.17;2.87;;;;;;;22.22;63.37;101263.34;4996581;28;20207;-72
2023/08/24 07:55:38;;;;;;;3.87;3.40;;;;;;;22.33;62.91;101258.72;4992540;28;20222;-72
2023/08/24 07:58:04;;;;;;;6.53;3.33;;;;;;;22.43;62.64;101263.31;4996891;28;21468;-72
2023/08/24 08:00:31;;;;;;;3.33;3.03;;;;;;;22.51;63.05;101269.47;4997425;28;20200;-72
2023/08/24 08:02:59;;;;;;;4.63;2.72;;;;;;;22.61;63.19;101268.69;4979363;28;20712;-72
2023/08/24 08:05:25;;;;;;;4.83;2.80;;;;;;;22.68;61.71;101265.94;4995557;28;20207;-72
2023/08/24 08:07:52;;;;;;;3.17;2.40;;;;;;;22.79;61.03;101262.06;4996188;28;20215;-73
2023/08/24 08:10:20;;;;;;;3.10;2.33;;;;;;;22.87;60.47;101258.16;4994913;28;20250;-71
2023/08/24 08:12:46;;;;;;;4.97;2.47;;;;;;;22.97;58.91;101260.06;4993085;28;20681;-72
2023/08/24 08:15:13;;;;;;;4.03;2.83;;;;;;;23.08;58.58;101257.31;4995483;28;20212;-72
2023/08/24 08:17:39;;;;;;;5.78;2.60;;;;;;;23.15;57.05;101251.88;4995418;28;20300;-72
2023/08/24 08:20:08;;;;;;;4.55;2.58;;;;;;;23.23;56.66;101252.63;4996990;28;20207;-71
2023/08/24 08:22:38;;;;;;;3.38;2.55;;;;;;;23.30;57.25;101247.97;4992301;28;20682;-71
2023/08/24 08:25:05;;;;;;;5.40;2.70;;;;;;;23.38;57.82;101260.25;4995947;28;20246;-71
2023/08/24 08:27:32;;;;;;;5.88;2.30;;;;;;;23.46;58.38;101266.38;4992422;28;20222;-71
2023/08/24 08:29:59;;;;;;;3.63;2.00;;;;;;;23.53;55.87;101258.97;4996717;28;20701;-72
2023/08/24 08:32:27;;;;;;;3.33;2.17;;;;;;;23.62;54.20;101263.94;4994575;28;20214;-72
2023/08/24 08:34:54;;;;;;;3.38;2.10;;;;;;;23.69;56.87;101261.97;4994336;28;20209;-72
2023/08/24 08:37:21;;;;;;;3.17;2.10;;;;;;;23.77;55.22;101254.59;4993973;28;20230;-71
2023/08/24 08:39:48;;;;;;;3.85;2.30;;;;;;;23.87;55.24;101254.47;4998833;28;20231;-71
2023/08/24 08:42:15;;;;;;;2.95;2.28;;;;;;;23.96;54.97;101251.34;4997160;28;20695;-71
2023/08/24 08:44:42;;;;;;;2.22;2.03;;;;;;;24.04;55.86;101252.81;4995264;28;20220;-72
2023/08/24 08:47:10;;;;;;;3.97;2.28;;;;;;;24.10;55.00;101251.97;4997676;28;20199;-72
2023/08/24 08:49:38;;;;;;;2.47;2.20;;;;;;;24.17;56.22;101244.56;4995929;28;20597;-71
2023/08/24 08:52:05;;;;;;;2.97;1.88;;;;;;;24.26;52.40;101246.81;4998520;28;20211;-71
2023/08/24 08:54:32;;;;;;;3.33;2.00;;;;;;;24.37;51.91;101244.00;4997819;28;20215;-71
2023/08/24 08:56:59;;;;;;;4.32;2.00;;;;;;;24.45;51.54;101229.25;4998028;28;20273;-72
2023/08/24 08:59:29;;;;;;;2.38;2.17;;;;;;;24.56;52.05;101225.25;4995929;28;20234;-71
2023/08/24 09:01:57;;;;;;;3.72;2.25;;;;;;;24.66;50.82;101220.94;4997868;28;20288;-72
2023/08/24 09:04:24;;;;;;;3.28;1.92;;;;;;;24.77;50.51;101216.16;4991830;28;20218;-72
2023/08/24 09:06:50;;;;;;;6.20;2.13;;;;;;;24.88;51.20;101219.47;4998761;28;20207;-71
2023/08/24 09:09:17;;;;;;;3.65;1.77;;;;;;;25.02;50.54;101213.88;4995724;28;20830;-71
2023/08/24 09:11:47;;;;;;;2.15;1.90;;;;;;;25.15;49.28;101209.44;4997472;28;20918;-72
2023/08/24 09:14:14;;;;;;;5.55;2.35;;;;;;;25.29;49.76;101217.38;4995142;28;20207;-71
2023/08/24 09:16:42;;;;;;;4.20;2.10;;;;;;;25.39;48.31;101209.09;4997274;28;20222;-71
2023/08/24 09:19:11;;;;;;;4.95;2.10;;;;;;;25.50;49.80;101214.34;4995934;28;21083;-72
2023/08/24 09:21:39;;;;;;;3.60;2.17;;;;;;;25.64;49.70;101212.16;4996716;28;20215;-72
2023/08/24 09:24:07;;;;;;;2.38;2.10;;;;;;;25.79;49.96;101208.03;4995380;28;20215;-72
2023/08/24 09:26:35;;;;;;;2.00;1.70;;;;;;;25.96;50.07;101201.56;4996260;28;20207;-71
2023/08/24 09:29:13;;;;;;;3.35;2.08;;;;;;;26.14;49.00;101188.50;4996782;28;20245;-71
2023/08/24 09:31:40;;;;;;;2.08;1.88;;;;;;;26.27;47.88;101186.66;4993300;28;20215;-72
2023/08/24 09:34:07;;;;;;;3.60;1.80;;;;;;;26.37;47.35;101188.41;4996928;28;20213;-72
2023/08/24 09:36:34;;;;;;;4.05;1.98;;;;;;;26.49;49.44;101181.59;4995622;28;20231;-72
2023/08/24 09:39:04;;;;;;;3.75;2.00;;;;;;;26.61;50.60;101186.41;4997346;28;20225;-72
2023/08/24 09:41:39;;;;;;;3.38;2.00;;;;;;;26.72;47.24;101179.56;4994270;28;20207;-71
2023/08/24 09:44:07;;;;;;;3.95;2.10;;;;;;;26.82;47.27;101177.81;4995141;28;20318;-72
2023/08/24 09:46:34;;;;;;;2.72;1.80;;;;;;;26.89;46.16;101175.69;4991642;28;20218;-72
2023/08/24 09:49:01;;;;;;;3.78;1.90;;;;;;;26.95;47.09;101165.91;4998188;28;20228;-71
2023/08/24 09:51:28;;;;;;;2.28;1.98;;;;;;;26.98;46.26;101169.72;4992755;28;20727;-72
2023/08/24 09:53:58;;;;;;;4.00;2.40;;;;;;;27.05;49.19;101166.84;4961633;28;20282;-71
2023/08/24 09:56:26;;;;;;;4.30;2.30;;;;;;;27.04;45.97;101160.63;4990139;28;20211;-72
2023/08/24 09:58:55;;;;;;;2.85;1.98;;;;;;;27.10;47.28;101158.97;4994642;28;20223;-71
2023/08/24 10:01:25;;;;;;;5.00;2.15;;;;;;;27.14;44.39;101158.88;4989580;28;20207;-72
2023/08/24 10:03:52;;;;;;;4.70;1.92;;;;;;;27.14;45.47;101158.88;4992129;28;20612;-71
2023/08/24 10:06:22;;;;;;;2.70;2.20;;;;;;;27.19;45.21;101155.69;4992834;28;20312;-73
2023/08/24 10:08:55;;;;;;;5.70;2.22;;;;;;;27.25;44.26;101156.72;4994612;28;20231;-71
2023/08/24 10:11:27;;;;;;;5.13;2.35;;;;;;;27.27;46.80;101149.66;4993942;28;20538;-72
2023/08/24 10:14:01;;;;;;;2.05;1.85;;;;;;;27.34;45.45;101152.19;4994227;28;20880;-73
2023/08/24 10:16:31;;;;;;;4.68;2.20;;;;;;;27.37;44.93;101147.88;4994440;28;20210;-72
2023/08/24 10:18:58;;;;;;;2.25;2.05;;;;;;;27.45;44.19;101143.81;4995278;28;20353;-72
2023/08/24 10:21:25;;;;;;;2.95;1.95;;;;;;;27.46;43.84;101148.03;4993653;28;20211;-71
2023/08/24 10:23:53;;;;;;;2.33;2.15;;;;;;;27.45;43.76;101147.28;4992898;28;20294;-71
2023/08/24 10:26:20;;;;;;;2.97;2.00;;;;;;;27.47;44.04;101147.63;4990883;28;20351;-73
2023/08/24 10:28:48;;;;;;;4.90;1.77;;;;;;;27.47;43.49;101146.84;4993498;28;20304;-72
2023/08/24 10:31:15;;;;;;;3.88;2.08;;;;;;;27.49;43.21;101137.09;4995766;28;20827;-72
2023/08/24 10:33:45;;;;;;;2.63;1.95;;;;;;;27.52;42.48;101124.63;4992744;28;20203;-72
2023/08/24 10:36:13;;;;;;;4.00;2.20;;;;;;;27.53;44.74;101132.34;4994910;28;20238;-71
2023/08/24 10:38:42;;;;;;;3.15;2.10;;;;;;;27.50;44.47;101135.16;4992354;28;21428;-72
2023/08/24 10:41:08;;;;;;;3.88;2.15;;;;;;;27.50;44.88;101133.19;4993970;28;20217;-71
2023/08/24 10:43:36;;;;;;;1.92;1.80;;;;;;;27.50;45.04;101141.31;4992457;28;20203;-71
2023/08/24 10:46:03;;;;;;;1.90;1.80;;;;;;;27.48;43.71;101140.22;4978034;28;20328;-72
2023/08/24 10:48:32;;;;;;;2.40;1.75;;;;;;;27.41;42.55;101133.03;4995374;28;20229;-72
2023/08/24 10:51:22;;;;;;;2.67;2.00;;;;;;;27.34;41.77;101127.03;4973230;28;20594;-71
2023/08/24 10:53:53;;;;;;;2.78;2.03;;;;;;;27.25;42.17;101133.03;4991271;28;20593;-72
2023/08/24 10:56:20;;;;;;;2.50;2.00;;;;;;;27.17;42.96;101129.00;4994611;28;20410;-72
2023/08/24 10:59:08;;;;;;;4.75;2.17;;;;;;;27.08;43.26;101125.34;4976595;28;20223;-72
2023/08/24 11:01:38;;;;;;;2.70;2.10;;;;;;;27.02;42.10;101130.50;4993998;28;20215;-73
2023/08/24 11:04:06;;;;;;;2.97;1.88;;;;;;;26.95;42.25;101127.97;4997144;28;20207;-71
2023/08/24 11:06:34;;;;;;;3.13;2.08;;;;;;;26.89;42.94;101124.22;4995408;28;20215;-72
2023/08/24 11:09:13;;;;;;;3.00;1.95;;;;;;;26.82;44.70;101124.38;4992876;28;20254;-72
2023/08/24 11:11:40;;;;;;;2.97;2.00;;;;;;;26.80;43.54;101125.97;4982425;28;20313;-72
2023/08/24 11:14:17;;;;;;;4.60;2.13;;;;;;;26.80;44.71;101124.03;4994615;28;20207;-72
2023/08/24 11:16:45;;;;;;;5.00;2.10;;;;;;;26.83;44.51;101117.03;4991055;28;20217;-72
2023/08/24 11:19:13;;;;;;;2.95;2.13;;;;;;;26.86;42.32;101113.44;4988106;28;20223;-71
2023/08/24 11:21:41;;;;;;;3.58;2.25;;;;;;;26.91;43.61;101112.94;4992639;28;20598;-73
2023/08/24 11:24:10;;;;;;;4.25;1.98;;;;;;;26.99;43.74;101104.22;4997970;28;20234;-72
2023/08/24 11:26:40;;;;;;;3.47;2.05;;;;;;;27.08;42.67;101103.66;4995569;28;20203;-71